createdAt,value
2016-11-29T00:00:49.408Z,-3.42
2016-11-29T00:01:49.359Z,-3.4
2016-11-29T00:02:49.341Z,-3.36
2016-11-29T00:03:49.362Z,-3.45
2016-11-29T00:04:49.430Z,-3.38
2016-11-29T00:05:49.363Z,-3.42
2016-11-29T00:06:49.473Z,-3.21
2016-11-29T00:07:49.394Z,-2.99
2016-11-29T00:08:49.443Z,-2.61
2016-11-29T00:09:49.373Z,-2.25
2016-11-29T00:10:49.402Z,-2.05
2016-11-29T00:11:49.294Z,-2.02
2016-11-29T00:12:49.373Z,-2.1
2016-11-29T00:13:49.369Z,-2.15
2016-11-29T00:14:49.378Z,-2.34
2016-11-29T00:15:49.385Z,-2.34
2016-11-29T00:16:49.390Z,-2.46
2016-11-29T00:17:49.430Z,-2.54
2016-11-29T00:18:49.388Z,-2.46
2016-11-29T00:19:49.398Z,-2.32
2016-11-29T00:20:49.392Z,-1.94
2016-11-29T00:21:49.432Z,-1.89
2016-11-29T00:22:49.398Z,-1.76
2016-11-29T00:23:49.397Z,-1.34
2016-11-29T00:24:49.486Z,-1.96
2016-11-29T00:25:49.335Z,-1.99
2016-11-29T00:26:49.367Z,-2.2
2016-11-29T00:27:49.338Z,-2.12
2016-11-29T00:28:49.423Z,-2.03
2016-11-29T00:29:49.420Z,-1.85
2016-11-29T00:30:49.418Z,-1.68
2016-11-29T00:31:49.422Z,-1.68
2016-11-29T00:32:49.506Z,-1.78
2016-11-29T00:33:49.347Z,-1.91
2016-11-29T00:34:49.448Z,-2.17
2016-11-29T00:35:49.517Z,-2.12
2016-11-29T00:36:49.435Z,-2.37
2016-11-29T00:37:49.471Z,-2.47
2016-11-29T00:38:49.373Z,-2.4
2016-11-29T00:39:49.380Z,-2.18
2016-11-29T00:40:49.473Z,-2.24
2016-11-29T00:41:49.463Z,-2.47
2016-11-29T00:42:49.741Z,-2.57
2016-11-29T00:43:49.545Z,-2.64
2016-11-29T00:44:49.518Z,-2.81
2016-11-29T00:45:49.492Z,-2.85
2016-11-29T00:46:49.393Z,-3
2016-11-29T00:47:49.465Z,-2.96
2016-11-29T00:48:49.397Z,-3.07
2016-11-29T00:49:49.559Z,-3.11
2016-11-29T00:50:49.467Z,-3.09
2016-11-29T00:51:49.404Z,-3.15
2016-11-29T00:52:49.566Z,-3.18
2016-11-29T00:53:49.513Z,-3.22
2016-11-29T00:54:49.414Z,-3.36
2016-11-29T00:55:49.491Z,-3.36
2016-11-29T00:56:49.419Z,-3.53
2016-11-29T00:57:49.425Z,-3.48
2016-11-29T00:58:49.718Z,-3.54
2016-11-29T00:59:49.510Z,-3.61
2016-11-29T01:00:49.524Z,-3.54
2016-11-29T01:01:49.515Z,-3.76
2016-11-29T01:02:49.529Z,-3.63
2016-11-29T01:03:49.513Z,-3.79
2016-11-29T01:04:49.515Z,-3.86
2016-11-29T01:05:49.434Z,-3.87
2016-11-29T01:06:49.547Z,-3.93
2016-11-29T01:07:49.547Z,-4.04
2016-11-29T01:08:49.540Z,-3.9
2016-11-29T01:09:49.555Z,-3.97
2016-11-29T01:10:49.536Z,-4.04
2016-11-29T01:11:49.544Z,-4.04
2016-11-29T01:12:49.529Z,-3.98
2016-11-29T01:13:49.614Z,-4.01
2016-11-29T01:14:49.749Z,-4.12
2016-11-29T01:15:49.541Z,-4.08
2016-11-29T01:16:49.624Z,-3.96
2016-11-29T01:17:49.645Z,-3.82
2016-11-29T01:18:49.554Z,-3.69
2016-11-29T01:19:49.552Z,-3.6
2016-11-29T01:20:49.558Z,-3.61
2016-11-29T01:21:49.645Z,-3.4
2016-11-29T01:22:49.572Z,-3.39
2016-11-29T01:23:49.591Z,-3.28
2016-11-29T01:24:49.648Z,-3.29
2016-11-29T01:25:49.585Z,-3.33
2016-11-29T01:26:49.503Z,-3.28
2016-11-29T01:27:49.576Z,-3.35
2016-11-29T01:28:49.501Z,-3.45
2016-11-29T01:29:49.591Z,-3.47
2016-11-29T01:30:49.801Z,-3.56
2016-11-29T01:31:49.598Z,-3.65
2016-11-29T01:32:49.669Z,-3.71
2016-11-29T01:33:49.518Z,-3.76
2016-11-29T01:34:49.597Z,-3.9
2016-11-29T01:35:49.602Z,-3.94
2016-11-29T01:36:49.673Z,-3.91
2016-11-29T01:37:49.660Z,-3.93
2016-11-29T01:38:49.685Z,-3.94
2016-11-29T01:39:49.626Z,-4.06
2016-11-29T01:40:49.880Z,-4.06
2016-11-29T01:41:49.641Z,-4.14
2016-11-29T01:42:49.546Z,-4.19
2016-11-29T01:43:49.616Z,-4.16
2016-11-29T01:44:49.550Z,-4.19
2016-11-29T01:45:49.702Z,-4.27
2016-11-29T01:46:49.674Z,-4.14
2016-11-29T01:47:49.624Z,-4.3
2016-11-29T01:48:49.714Z,-4.32
2016-11-29T01:49:49.648Z,-4.34
2016-11-29T01:50:49.628Z,-4.32
2016-11-29T01:51:49.646Z,-4.29
2016-11-29T01:52:49.657Z,-4.3
2016-11-29T01:53:49.576Z,-4.3
2016-11-29T01:54:49.662Z,-4.33
2016-11-29T01:55:49.664Z,-4.3
2016-11-29T01:56:49.610Z,-4.32
2016-11-29T01:57:49.670Z,-4.44
2016-11-29T01:58:49.696Z,-4.36
2016-11-29T01:59:49.666Z,-4.47
2016-11-29T02:00:49.602Z,-4.34
2016-11-29T02:01:49.671Z,-4.51
2016-11-29T02:02:49.799Z,-4.51
2016-11-29T02:03:49.774Z,-4.53
2016-11-29T02:04:49.685Z,-4.68
2016-11-29T02:05:49.668Z,-4.61
2016-11-29T02:06:49.764Z,-4.55
2016-11-29T02:07:49.683Z,-4.55
2016-11-29T02:08:49.624Z,-4.61
2016-11-29T02:09:49.758Z,-4.53
2016-11-29T02:10:49.606Z,-4.61
2016-11-29T02:11:49.783Z,-4.53
2016-11-29T02:12:49.710Z,-4.55
2016-11-29T02:13:49.637Z,-4.59
2016-11-29T02:14:49.712Z,-4.68
2016-11-29T02:15:49.697Z,-4.59
2016-11-29T02:16:49.789Z,-4.63
2016-11-29T02:17:49.722Z,-4.66
2016-11-29T02:18:49.874Z,-4.72
2016-11-29T02:19:49.784Z,-4.71
2016-11-29T02:20:49.722Z,-4.73
2016-11-29T02:21:49.732Z,-4.69
2016-11-29T02:22:49.809Z,-4.72
2016-11-29T02:23:49.649Z,-4.73
2016-11-29T02:24:49.652Z,-4.66
2016-11-29T02:25:49.660Z,-4.57
2016-11-29T02:26:49.739Z,-4.53
2016-11-29T02:27:49.745Z,-4.61
2016-11-29T02:28:49.909Z,-4.54
2016-11-29T02:29:49.844Z,-4.51
2016-11-29T02:30:49.824Z,-4.55
2016-11-29T02:31:49.829Z,-4.61
2016-11-29T02:32:49.674Z,-4.62
2016-11-29T02:33:49.759Z,-4.62
2016-11-29T02:34:49.790Z,-4.68
2016-11-29T02:35:49.764Z,-4.66
2016-11-29T02:36:49.759Z,-4.68
2016-11-29T02:37:49.770Z,-4.75
2016-11-29T02:38:49.763Z,-4.72
2016-11-29T02:39:49.771Z,-4.73
2016-11-29T02:40:49.778Z,-4.8
2016-11-29T02:41:49.786Z,-4.87
2016-11-29T02:42:49.694Z,-4.87
2016-11-29T02:43:49.864Z,-4.89
2016-11-29T02:44:49.711Z,-4.97
2016-11-29T02:45:49.803Z,-4.94
2016-11-29T02:46:49.880Z,-5.01
2016-11-29T02:47:49.792Z,-4.97
2016-11-29T02:48:49.871Z,-5
2016-11-29T02:49:49.924Z,-5.05
2016-11-29T02:50:49.821Z,-5
2016-11-29T02:51:49.797Z,-4.9
2016-11-29T02:52:49.871Z,-5.1
2016-11-29T02:53:49.740Z,-5.1
2016-11-29T02:54:49.874Z,-5.14
2016-11-29T02:55:49.814Z,-5.12
2016-11-29T02:56:49.817Z,-5.22
2016-11-29T02:57:49.817Z,-5.17
2016-11-29T02:58:49.824Z,-5.24
2016-11-29T02:59:49.811Z,-5.2
2016-11-29T03:00:49.809Z,-5.26
2016-11-29T03:01:49.858Z,-5.37
2016-11-29T03:02:49.940Z,-5.38
2016-11-29T03:03:49.829Z,-5.35
2016-11-29T03:04:49.833Z,-5.35
2016-11-29T03:05:49.844Z,-5.33
2016-11-29T03:06:49.900Z,-5.44
2016-11-29T03:07:49.833Z,-5.42
2016-11-29T03:08:49.781Z,-5.5
2016-11-29T03:09:49.859Z,-5.5
2016-11-29T03:10:49.875Z,-5.59
2016-11-29T03:11:49.849Z,-5.55
2016-11-29T03:12:49.867Z,-5.44
2016-11-29T03:13:49.939Z,-5.51
2016-11-29T03:14:49.933Z,-5.58
2016-11-29T03:15:49.784Z,-5.5
2016-11-29T03:16:49.792Z,-5.51
2016-11-29T03:17:49.952Z,-5.48
2016-11-29T03:18:49.789Z,-5.52
2016-11-29T03:19:49.869Z,-5.47
2016-11-29T03:20:49.820Z,-5.51
2016-11-29T03:21:49.939Z,-5.47
2016-11-29T03:22:49.990Z,-5.52
2016-11-29T03:23:49.962Z,-5.47
2016-11-29T03:24:49.876Z,-5.44
2016-11-29T03:25:49.896Z,-5.47
2016-11-29T03:26:49.940Z,-5.48
2016-11-29T03:27:49.819Z,-5.51
2016-11-29T03:28:50.003Z,-5.44
2016-11-29T03:29:49.897Z,-5.51
2016-11-29T03:30:49.949Z,-5.51
2016-11-29T03:31:49.823Z,-5.6
2016-11-29T03:32:49.829Z,-5.45
2016-11-29T03:33:49.909Z,-5.59
2016-11-29T03:34:49.954Z,-5.58
2016-11-29T03:35:49.992Z,-5.77
2016-11-29T03:36:49.993Z,-5.7
2016-11-29T03:37:49.927Z,-5.62
2016-11-29T03:38:49.950Z,-5.63
2016-11-29T03:39:49.836Z,-5.68
2016-11-29T03:40:49.994Z,-5.65
2016-11-29T03:41:49.930Z,-5.51
2016-11-29T03:42:49.855Z,-5.59
2016-11-29T03:43:50.015Z,-5.55
2016-11-29T03:44:49.868Z,-5.56
2016-11-29T03:45:49.940Z,-5.51
2016-11-29T03:46:49.936Z,-5.52
2016-11-29T03:47:50.048Z,-5.66
2016-11-29T03:48:50.027Z,-5.58
2016-11-29T03:49:50.051Z,-5.65
2016-11-29T03:50:49.883Z,-5.51
2016-11-29T03:51:50.008Z,-5.55
2016-11-29T03:52:50.032Z,-5.55
2016-11-29T03:53:49.953Z,-5.65
2016-11-29T03:54:50.004Z,-5.62
2016-11-29T03:55:50.025Z,-5.65
2016-11-29T03:56:50.038Z,-5.58
2016-11-29T03:57:49.897Z,-5.58
2016-11-29T03:58:49.891Z,-5.5
2016-11-29T03:59:50.162Z,-5.41
2016-11-29T04:00:49.898Z,-5.22
2016-11-29T04:01:49.979Z,-5.29
2016-11-29T04:02:49.985Z,-5.33
2016-11-29T04:03:49.990Z,-5.29
2016-11-29T04:04:49.920Z,-5.4
2016-11-29T04:05:50.082Z,-5.4
2016-11-29T04:06:49.996Z,-5.41
2016-11-29T04:07:50.002Z,-5.41
2016-11-29T04:08:50.006Z,-5.44
2016-11-29T04:09:50.085Z,-5.51
2016-11-29T04:10:50.044Z,-5.48
2016-11-29T04:11:49.933Z,-5.55
2016-11-29T04:12:50.015Z,-5.51
2016-11-29T04:13:50.012Z,-5.6
2016-11-29T04:14:50.034Z,-5.59
2016-11-29T04:15:49.942Z,-5.59
2016-11-29T04:16:49.954Z,-5.6
2016-11-29T04:17:50.027Z,-5.63
2016-11-29T04:18:49.961Z,-5.59
2016-11-29T04:19:50.028Z,-5.6
2016-11-29T04:20:49.971Z,-5.7
2016-11-29T04:21:50.097Z,-5.59
2016-11-29T04:22:50.030Z,-5.69
2016-11-29T04:23:49.971Z,-5.74
2016-11-29T04:24:49.980Z,-5.73
2016-11-29T04:25:50.011Z,-5.73
2016-11-29T04:26:50.011Z,-5.68
2016-11-29T04:27:50.005Z,-5.66
2016-11-29T04:28:49.985Z,-5.52
2016-11-29T04:29:49.988Z,-5.51
2016-11-29T04:30:50.050Z,-5.5
2016-11-29T04:31:49.995Z,-5.55
2016-11-29T04:32:49.998Z,-5.38
2016-11-29T04:33:50.016Z,-5.45
2016-11-29T04:34:49.995Z,-5.33
2016-11-29T04:35:49.996Z,-5.31
2016-11-29T04:36:49.994Z,-5.19
2016-11-29T04:37:50.013Z,-5.29
2016-11-29T04:38:49.998Z,-5.31
2016-11-29T04:39:50.007Z,-5.35
2016-11-29T04:40:50.009Z,-5.23
2016-11-29T04:41:50.012Z,-5.29
2016-11-29T04:42:50.043Z,-5.3
2016-11-29T04:43:50.025Z,-5.35
2016-11-29T04:44:50.046Z,-5.37
2016-11-29T04:45:50.024Z,-5.47
2016-11-29T04:46:50.022Z,-5.45
2016-11-29T04:47:50.022Z,-5.5
2016-11-29T04:48:50.026Z,-5.52
2016-11-29T04:49:50.039Z,-5.55
2016-11-29T04:50:50.040Z,-5.5
2016-11-29T04:51:50.046Z,-5.56
2016-11-29T04:52:50.047Z,-5.52
2016-11-29T04:53:50.101Z,-5.7
2016-11-29T04:54:50.043Z,-5.56
2016-11-29T04:55:50.046Z,-5.51
2016-11-29T04:56:50.059Z,-5.58
2016-11-29T04:57:50.054Z,-5.65
2016-11-29T04:58:50.093Z,-5.55
2016-11-29T04:59:50.064Z,-5.58
2016-11-29T05:00:50.076Z,-5.51
2016-11-29T05:01:50.132Z,-5.69
2016-11-29T05:02:50.063Z,-5.66
2016-11-29T05:03:50.105Z,-5.65
2016-11-29T05:04:50.077Z,-5.52
2016-11-29T05:05:50.088Z,-5.5
2016-11-29T05:06:50.095Z,-5.51
2016-11-29T05:07:50.078Z,-5.52
2016-11-29T05:08:50.107Z,-5.41
2016-11-29T05:09:50.117Z,-5.41
2016-11-29T05:10:50.089Z,-5.37
2016-11-29T05:11:50.141Z,-5.37
2016-11-29T05:12:50.096Z,-5.35
2016-11-29T05:13:50.110Z,-5.41
2016-11-29T05:14:50.143Z,-5.51
2016-11-29T05:15:50.118Z,-5.45
2016-11-29T05:16:50.373Z,-5.47
2016-11-29T05:17:50.122Z,-5.5
2016-11-29T05:18:50.128Z,-5.5
2016-11-29T05:19:50.352Z,-5.51
2016-11-29T05:20:50.113Z,-5.51
2016-11-29T05:21:50.147Z,-5.58
2016-11-29T05:22:50.136Z,-5.5
2016-11-29T05:23:50.134Z,-5.63
2016-11-29T05:24:50.192Z,-5.62
2016-11-29T05:25:50.140Z,-5.68
2016-11-29T05:26:50.128Z,-5.76
2016-11-29T05:27:50.141Z,-5.77
2016-11-29T05:28:50.136Z,-5.8
2016-11-29T05:29:50.157Z,-5.76
2016-11-29T05:30:50.176Z,-5.79
2016-11-29T05:31:50.139Z,-5.83
2016-11-29T05:32:50.239Z,-5.77
2016-11-29T05:33:50.153Z,-5.79
2016-11-29T05:34:50.168Z,-5.89
2016-11-29T05:35:50.213Z,-5.94
2016-11-29T05:36:50.174Z,-5.84
2016-11-29T05:37:50.195Z,-5.86
2016-11-29T05:38:50.172Z,-5.86
2016-11-29T05:39:50.177Z,-5.97
2016-11-29T05:40:50.180Z,-5.83
2016-11-29T05:41:50.187Z,-5.73
2016-11-29T05:42:50.254Z,-5.63
2016-11-29T05:43:50.272Z,-5.62
2016-11-29T05:44:50.186Z,-5.42
2016-11-29T05:45:50.265Z,-5.48
2016-11-29T05:46:50.382Z,-5.59
2016-11-29T05:47:50.188Z,-5.55
2016-11-29T05:48:50.268Z,-5.52
2016-11-29T05:49:50.376Z,-5.63
2016-11-29T05:50:50.215Z,-5.65
2016-11-29T05:51:50.309Z,-5.7
2016-11-29T05:52:50.351Z,-5.58
2016-11-29T05:53:50.364Z,-5.6
2016-11-29T05:54:50.297Z,-5.59
2016-11-29T05:55:50.374Z,-5.55
2016-11-29T05:56:50.370Z,-5.6
2016-11-29T05:57:50.333Z,-5.63
2016-11-29T05:58:50.378Z,-5.69
2016-11-29T05:59:50.294Z,-5.73
2016-11-29T06:00:50.301Z,-5.62
2016-11-29T06:01:50.356Z,-5.63
2016-11-29T06:02:50.410Z,-5.8
2016-11-29T06:03:50.401Z,-5.65
2016-11-29T06:04:50.248Z,-5.65
2016-11-29T06:05:50.312Z,-5.47
2016-11-29T06:06:50.244Z,-5.48
2016-11-29T06:07:50.321Z,-5.4
2016-11-29T06:08:50.402Z,-5.31
2016-11-29T06:09:50.266Z,-5.3
2016-11-29T06:10:50.335Z,-5.7
2016-11-29T06:11:50.264Z,-5.33
2016-11-29T06:12:50.453Z,-4.89
2016-11-29T06:13:50.441Z,-5.5
2016-11-29T06:14:50.413Z,-5.4
2016-11-29T06:15:50.354Z,-5.44
2016-11-29T06:16:50.429Z,-5.4
2016-11-29T06:17:50.366Z,-5.48
2016-11-29T06:18:50.477Z,-5.59
2016-11-29T06:19:50.378Z,-5.56
2016-11-29T06:20:50.306Z,-5.55
2016-11-29T06:21:50.321Z,-5.65
2016-11-29T06:22:51.165Z,-5.6
2016-11-29T06:23:50.373Z,-5.63
2016-11-29T06:24:50.436Z,-5.92
2016-11-29T06:25:50.290Z,-5.65
2016-11-29T06:26:50.374Z,-5.68
2016-11-29T06:27:50.378Z,-5.73
2016-11-29T06:28:50.448Z,-5.73
2016-11-29T06:29:50.391Z,-5.66
2016-11-29T06:30:50.388Z,-5.6
2016-11-29T06:31:50.384Z,-5.66
2016-11-29T06:32:50.467Z,-5.58
2016-11-29T06:33:50.535Z,-5.48
2016-11-29T06:34:50.490Z,-5.29
2016-11-29T06:35:50.421Z,-5.2
2016-11-29T06:36:50.480Z,-5.12
2016-11-29T06:37:50.476Z,-5.14
2016-11-29T06:38:50.328Z,-5.02
2016-11-29T06:39:50.485Z,-5.08
2016-11-29T06:40:50.408Z,-5.08
2016-11-29T06:41:50.431Z,-5.23
2016-11-29T06:42:50.429Z,-5.31
2016-11-29T06:43:50.427Z,-5.26
2016-11-29T06:44:50.345Z,-5.26
2016-11-29T06:45:50.513Z,-5.24
2016-11-29T06:46:50.374Z,-5.24
2016-11-29T06:47:50.431Z,-5.2
2016-11-29T06:48:50.423Z,-5.17
2016-11-29T06:49:50.436Z,-5.07
2016-11-29T06:50:50.909Z,-5.01
2016-11-29T06:51:50.463Z,-5.04
2016-11-29T06:52:50.363Z,-5.08
2016-11-29T06:53:50.445Z,-5.07
2016-11-29T06:54:50.539Z,-5.02
2016-11-29T06:55:50.437Z,-5.01
2016-11-29T06:56:50.493Z,-5.1
2016-11-29T06:57:50.455Z,-5.1
2016-11-29T06:58:50.534Z,-5.11
2016-11-29T06:59:50.455Z,-5.14
2016-11-29T07:00:50.396Z,-5.05
2016-11-29T07:01:50.416Z,-5.1
2016-11-29T07:02:50.506Z,-5.19
2016-11-29T07:03:50.566Z,-5.27
2016-11-29T07:04:50.508Z,-5.24
2016-11-29T07:05:50.623Z,-5.3
2016-11-29T07:06:50.552Z,-5.23
2016-11-29T07:07:50.508Z,-5.27
2016-11-29T07:08:50.694Z,-5.23
2016-11-29T07:09:50.458Z,-5.2
2016-11-29T07:10:50.532Z,-5.08
2016-11-29T07:11:50.641Z,-5.1
2016-11-29T07:12:50.544Z,-5.14
2016-11-29T07:13:50.590Z,-5.05
2016-11-29T07:14:50.617Z,-5
2016-11-29T07:15:50.592Z,-4.97
2016-11-29T07:16:50.615Z,-4.97
2016-11-29T07:17:50.547Z,-4.86
2016-11-29T07:18:50.488Z,-4.93
2016-11-29T07:19:50.639Z,-4.94
2016-11-29T07:20:50.625Z,-5.11
2016-11-29T07:21:50.533Z,-5.12
2016-11-29T07:22:50.521Z,-5.31
2016-11-29T07:23:50.563Z,-5.4
2016-11-29T07:24:50.515Z,-5.33
2016-11-29T07:25:50.509Z,-5.4
2016-11-29T07:26:50.436Z,-5.33
2016-11-29T07:27:50.557Z,-5.89
2016-11-29T07:28:50.439Z,-5.24
2016-11-29T07:29:50.570Z,-5.05
2016-11-29T07:30:50.560Z,-5
2016-11-29T07:31:50.392Z,-4.87
2016-11-29T07:32:50.534Z,-4.83
2016-11-29T07:33:50.451Z,-4.79
2016-11-29T07:34:50.615Z,-4.65
2016-11-29T07:35:50.496Z,-4.57
2016-11-29T07:36:50.524Z,-4.61
2016-11-29T07:37:52.438Z,-4.59
2016-11-29T07:38:50.558Z,-4.48
2016-11-29T07:39:50.605Z,-4.54
2016-11-29T07:40:50.570Z,-4.59
2016-11-29T07:41:50.566Z,-4.63
2016-11-29T07:42:50.610Z,-4.57
2016-11-29T07:43:50.642Z,-4.54
2016-11-29T07:44:50.625Z,-4.61
2016-11-29T07:45:50.617Z,-4.71
2016-11-29T07:46:50.681Z,-4.71
2016-11-29T07:47:50.628Z,-4.75
2016-11-29T07:48:50.578Z,-4.86
2016-11-29T07:49:50.602Z,-4.94
2016-11-29T07:50:50.603Z,-3.97
2016-11-29T07:51:50.728Z,-5.05
2016-11-29T07:52:50.691Z,-5.12
2016-11-29T07:53:50.614Z,-5.22
2016-11-29T07:54:50.718Z,-5.12
2016-11-29T07:55:50.692Z,-5.22
2016-11-29T07:56:50.630Z,-5.24
2016-11-29T07:57:50.674Z,-5.17
2016-11-29T07:58:50.735Z,-5.17
2016-11-29T07:59:50.585Z,-4.93
2016-11-29T08:00:50.569Z,-4.69
2016-11-29T08:01:50.635Z,-4.71
2016-11-29T08:02:50.655Z,-4.72
2016-11-29T08:03:50.532Z,-4.71
2016-11-29T08:04:50.513Z,-4.75
2016-11-29T08:05:50.707Z,-4.69
2016-11-29T08:06:50.652Z,-4.69
2016-11-29T08:07:50.695Z,-4.73
2016-11-29T08:08:50.766Z,-4.59
2016-11-29T08:09:50.764Z,-4.61
2016-11-29T08:10:50.812Z,-4.47
2016-11-29T08:11:50.852Z,-4.48
2016-11-29T08:12:50.777Z,-4.33
2016-11-29T08:13:50.736Z,-4.33
2016-11-29T08:14:50.522Z,-4.33
2016-11-29T08:15:51.642Z,-4.43
2016-11-29T08:16:50.767Z,-4.39
2016-11-29T08:17:50.840Z,-4.3
2016-11-29T08:18:50.740Z,-4.27
2016-11-29T08:19:50.794Z,-4.34
2016-11-29T08:20:50.717Z,-4.32
2016-11-29T08:21:51.607Z,-4.41
2016-11-29T08:22:50.607Z,-4.47
2016-11-29T08:23:50.820Z,-4.41
2016-11-29T08:24:50.601Z,-4.36
2016-11-29T08:25:50.672Z,-4.45
2016-11-29T08:26:51.057Z,-4.33
2016-11-29T08:27:50.555Z,-4.43
2016-11-29T08:28:50.758Z,-4.32
2016-11-29T08:29:50.754Z,-4.23
2016-11-29T08:30:50.598Z,-4.25
2016-11-29T08:31:50.706Z,-4.26
2016-11-29T08:32:50.767Z,-4.14
2016-11-29T08:33:50.692Z,-4.18
2016-11-29T08:34:50.818Z,-4.08
2016-11-29T08:35:50.713Z,-4.18
2016-11-29T08:36:50.878Z,-4.01
2016-11-29T08:37:50.805Z,-4
2016-11-29T08:38:50.736Z,-3.87
2016-11-29T08:39:50.997Z,-3.94
2016-11-29T08:40:50.663Z,-3.77
2016-11-29T08:41:50.723Z,-3.77
2016-11-29T08:42:50.770Z,-3.75
2016-11-29T08:43:50.852Z,-3.68
2016-11-29T08:44:50.905Z,-3.63
2016-11-29T08:45:50.992Z,-3.57
2016-11-29T08:46:50.872Z,-3.57
2016-11-29T08:47:51.744Z,-3.56
2016-11-29T08:48:50.732Z,-3.54
2016-11-29T08:49:50.839Z,-3.5
2016-11-29T08:50:50.900Z,-3.42
2016-11-29T08:51:50.807Z,-3.38
2016-11-29T08:52:51.016Z,-3.36
2016-11-29T08:53:50.785Z,-3.17
2016-11-29T08:54:50.868Z,-3.11
2016-11-29T08:55:50.874Z,-2.9
2016-11-29T08:56:50.714Z,-2.65
2016-11-29T08:57:50.769Z,-2.49
2016-11-29T08:58:50.825Z,-2.32
2016-11-29T08:59:54.666Z,-2.09
2016-11-29T09:00:50.821Z,-1.96
2016-11-29T09:01:50.801Z,-1.58
2016-11-29T09:02:50.778Z,-1.3
2016-11-29T09:03:50.777Z,-1.24
2016-11-29T09:04:50.836Z,-1.16
2016-11-29T09:05:50.882Z,-0.89
2016-11-29T09:06:50.904Z,-0.64
2016-11-29T09:07:50.956Z,-0.38
2016-11-29T09:08:50.964Z,-0.16
2016-11-29T09:09:51.135Z,0.05
2016-11-29T09:10:51.213Z,0.2
2016-11-29T09:11:50.897Z,0.5
2016-11-29T09:12:50.911Z,0.66
2016-11-29T09:13:53.861Z,0.71
2016-11-29T09:14:50.868Z,0.84
2016-11-29T09:15:50.892Z,0.67
2016-11-29T09:16:50.826Z,0.63
2016-11-29T09:17:50.876Z,0.57
2016-11-29T09:18:50.880Z,0.53
2016-11-29T09:19:50.880Z,0.61
2016-11-29T09:20:50.894Z,0.56
2016-11-29T09:21:51.040Z,0.75
2016-11-29T09:22:50.897Z,0.85
2016-11-29T09:23:50.962Z,0.99
2016-11-29T09:24:50.997Z,1.08
2016-11-29T09:25:51.119Z,1.07
2016-11-29T09:26:50.975Z,1.03
2016-11-29T09:27:50.996Z,1.32
2016-11-29T09:28:50.947Z,1.48
2016-11-29T09:29:50.987Z,1.6
2016-11-29T09:30:50.976Z,1.74
2016-11-29T09:31:51.700Z,1.76
2016-11-29T09:32:50.917Z,1.61
2016-11-29T09:33:50.834Z,1.6
2016-11-29T09:34:50.998Z,1.56
2016-11-29T09:35:50.958Z,1.65
2016-11-29T09:36:50.834Z,1.56
2016-11-29T09:37:50.904Z,1.58
2016-11-29T09:38:50.820Z,1.44
2016-11-29T09:39:50.989Z,1.3
2016-11-29T09:40:50.887Z,1.22
2016-11-29T09:41:50.982Z,1.22
2016-11-29T09:42:51.020Z,1.35
2016-11-29T09:43:51.048Z,1.47
2016-11-29T09:44:50.916Z,1.69
2016-11-29T09:45:51.026Z,1.75
2016-11-29T09:46:51.094Z,1.74
2016-11-29T09:47:51.031Z,1.86
2016-11-29T09:48:51.125Z,2.23
2016-11-29T09:49:50.972Z,2.44
2016-11-29T09:50:51.095Z,2.66
2016-11-29T09:51:50.970Z,2.54
2016-11-29T09:52:50.992Z,2.49
2016-11-29T09:53:51.092Z,2.41
2016-11-29T09:54:51.080Z,2.62
2016-11-29T09:55:50.969Z,2.63
2016-11-29T09:56:51.380Z,2.85
2016-11-29T09:57:51.179Z,2.85
2016-11-29T09:58:52.376Z,2.33
2016-11-29T09:59:52.158Z,2.29
2016-11-29T10:00:53.127Z,2.13
2016-11-29T10:01:50.888Z,2.11
2016-11-29T10:02:50.986Z,2.3
2016-11-29T10:03:51.076Z,2.51
2016-11-29T10:04:51.007Z,2.67
2016-11-29T10:05:50.904Z,2.76
2016-11-29T10:06:50.995Z,2.93
2016-11-29T10:07:51.066Z,3.21
2016-11-29T10:08:51.159Z,3.58
2016-11-29T10:09:51.030Z,3.54
2016-11-29T10:10:50.972Z,3.23
2016-11-29T10:11:51.065Z,3.45
2016-11-29T10:12:50.999Z,3.56
2016-11-29T10:13:50.954Z,3.09
2016-11-29T10:14:51.046Z,3.37
2016-11-29T10:15:51.183Z,3.24
2016-11-29T10:16:51.008Z,2.91
2016-11-29T10:17:50.952Z,2.49
2016-11-29T10:18:51.073Z,2.44
2016-11-29T10:19:51.603Z,2.49
2016-11-29T10:20:50.941Z,2.54
2016-11-29T10:21:51.139Z,2.63
2016-11-29T10:22:51.070Z,2.55
2016-11-29T10:23:50.979Z,2.52
2016-11-29T10:24:51.605Z,2.78
2016-11-29T10:25:51.097Z,2.65
2016-11-29T10:26:51.065Z,2.48
2016-11-29T10:27:51.715Z,2.55
2016-11-29T10:28:51.163Z,2.77
2016-11-29T10:29:51.055Z,2.73
2016-11-29T10:30:51.029Z,2.8
2016-11-29T10:31:50.960Z,2.87
2016-11-29T10:32:52.104Z,2.96
2016-11-29T10:33:51.202Z,3.13
2016-11-29T10:34:51.063Z,3.21
2016-11-29T10:35:51.040Z,3.19
2016-11-29T10:36:51.122Z,3.24
2016-11-29T10:37:51.083Z,3.13
2016-11-29T10:38:51.191Z,3.3
2016-11-29T10:39:51.844Z,3.06
2016-11-29T10:40:51.050Z,3.24
2016-11-29T10:41:51.105Z,3.09
2016-11-29T10:42:51.033Z,3.02
2016-11-29T10:43:51.181Z,3.19
2016-11-29T10:44:52.015Z,3.34
2016-11-29T10:45:51.191Z,3.57
2016-11-29T10:46:51.087Z,3.69
2016-11-29T10:47:51.119Z,3.57
2016-11-29T10:48:51.110Z,3.08
2016-11-29T10:49:51.584Z,3.19
2016-11-29T10:50:51.181Z,2.09
2016-11-29T10:51:51.993Z,2.09
2016-11-29T10:52:51.192Z,2.27
2016-11-29T10:53:51.329Z,2.6
2016-11-29T10:54:51.194Z,3.03
2016-11-29T10:55:51.257Z,3.02
2016-11-29T10:56:51.036Z,3.26
2016-11-29T10:57:51.111Z,3.29
2016-11-29T10:58:51.090Z,3.35
2016-11-29T10:59:51.350Z,3.46
2016-11-29T11:00:51.238Z,3.58
2016-11-29T11:01:51.047Z,3.66
2016-11-29T11:02:51.197Z,3.66
2016-11-29T11:03:51.075Z,3.82
2016-11-29T11:04:54.313Z,4.04
2016-11-29T11:05:53.978Z,4.26
2016-11-29T11:06:54.820Z,4.26
2016-11-29T11:07:53.130Z,4.24
2016-11-29T11:08:52.393Z,4.33
2016-11-29T11:09:51.213Z,4.26
2016-11-29T11:10:51.222Z,3.94
2016-11-29T11:11:51.228Z,4
2016-11-29T11:12:51.173Z,4.12
2016-11-29T11:13:51.306Z,4.29
2016-11-29T11:14:51.146Z,4.4
2016-11-29T11:15:51.224Z,4.53
2016-11-29T11:16:51.323Z,4.5
2016-11-29T11:17:51.189Z,4.51
2016-11-29T11:18:51.176Z,4.44
2016-11-29T11:19:51.205Z,4.54
2016-11-29T11:20:51.178Z,4.6
2016-11-29T11:21:51.361Z,4.66
2016-11-29T11:22:51.175Z,4.69
2016-11-29T11:23:51.170Z,4.66
2016-11-29T11:24:51.265Z,4.79
2016-11-29T11:25:51.154Z,4.95
2016-11-29T11:26:51.331Z,4.88
2016-11-29T11:27:51.359Z,4.98
2016-11-29T11:28:51.419Z,5.1
2016-11-29T11:29:51.218Z,5.27
2016-11-29T11:30:51.837Z,5.39
2016-11-29T11:31:51.250Z,5.13
2016-11-29T11:32:51.239Z,5.16
2016-11-29T11:33:51.289Z,5.34
2016-11-29T11:34:51.317Z,5.08
2016-11-29T11:35:51.229Z,5
2016-11-29T11:36:51.230Z,4.91
2016-11-29T11:37:51.304Z,4.97
2016-11-29T11:38:51.314Z,4.98
2016-11-29T11:39:51.342Z,4.6
2016-11-29T11:40:51.889Z,4.57
2016-11-29T11:41:51.298Z,4.74
2016-11-29T11:42:51.383Z,4.83
2016-11-29T11:43:51.213Z,4.83
2016-11-29T11:44:51.335Z,5.12
2016-11-29T11:45:51.373Z,5.3
2016-11-29T11:46:51.258Z,5.48
2016-11-29T11:47:51.175Z,5.34
2016-11-29T11:48:51.494Z,5.28
2016-11-29T11:49:51.372Z,5.24
2016-11-29T11:50:51.258Z,5.3
2016-11-29T11:51:51.274Z,5.55
2016-11-29T11:52:51.568Z,5.52
2016-11-29T11:53:51.312Z,5.44
2016-11-29T11:54:51.274Z,4.97
2016-11-29T11:55:51.371Z,5.36
2016-11-29T11:56:51.367Z,5.73
2016-11-29T11:57:51.401Z,5.91
2016-11-29T11:58:51.287Z,5.92
2016-11-29T11:59:51.469Z,5.99
2016-11-29T12:00:51.401Z,6.46
2016-11-29T12:01:51.283Z,6.65
2016-11-29T12:02:51.381Z,6.91
2016-11-29T12:03:51.312Z,6.91
2016-11-29T12:04:51.330Z,6.68
2016-11-29T12:05:51.415Z,6.49
2016-11-29T12:06:52.976Z,6.46
2016-11-29T12:07:51.411Z,6.7
2016-11-29T12:08:51.384Z,6.33
2016-11-29T12:09:51.476Z,6.7
2016-11-29T12:10:51.382Z,6.76
2016-11-29T12:11:51.289Z,7.11
2016-11-29T12:12:51.342Z,6.98
2016-11-29T12:13:51.260Z,7.22
2016-11-29T12:14:51.327Z,6.65
2016-11-29T12:15:51.403Z,6.06
2016-11-29T12:16:51.273Z,6.02
2016-11-29T12:17:51.398Z,6.42
2016-11-29T12:18:51.310Z,6.29
2016-11-29T12:19:51.432Z,6.29
2016-11-29T12:20:51.432Z,6.05
2016-11-29T12:21:52.072Z,6.33
2016-11-29T12:22:52.103Z,6.61
2016-11-29T12:23:52.110Z,6.62
2016-11-29T12:24:51.720Z,6.36
2016-11-29T12:25:51.417Z,6.2
2016-11-29T12:26:51.643Z,5.69
2016-11-29T12:27:53.842Z,5.72
2016-11-29T12:28:51.427Z,5.92
2016-11-29T12:29:51.421Z,6.29
2016-11-29T12:30:51.900Z,6.86
2016-11-29T12:31:51.356Z,6.86
2016-11-29T12:32:51.538Z,6.47
2016-11-29T12:33:51.392Z,6.21
2016-11-29T12:34:51.486Z,5.92
2016-11-29T12:35:51.404Z,5.81
2016-11-29T12:36:51.501Z,5.69
2016-11-29T12:37:51.472Z,5.52
2016-11-29T12:38:52.331Z,5.39
2016-11-29T12:39:51.443Z,5.27
2016-11-29T12:40:51.441Z,5.05
2016-11-29T12:41:51.512Z,4.74
2016-11-29T12:42:51.424Z,4.5
2016-11-29T12:43:51.452Z,4.21
2016-11-29T12:44:51.403Z,4.11
2016-11-29T12:45:51.606Z,4.29
2016-11-29T12:46:51.679Z,3.78
2016-11-29T12:47:51.454Z,3.43
2016-11-29T12:48:51.597Z,3.3
2016-11-29T12:49:51.477Z,3.39
2016-11-29T12:50:52.356Z,3.37
2016-11-29T12:51:51.522Z,3.46
2016-11-29T12:52:51.498Z,3.67
2016-11-29T12:53:51.371Z,3.78
2016-11-29T12:54:51.496Z,3.76
2016-11-29T12:55:51.675Z,3.34
2016-11-29T12:56:51.566Z,3.21
2016-11-29T12:57:52.097Z,3.29
2016-11-29T12:58:51.643Z,3.17
2016-11-29T12:59:51.560Z,3.2
2016-11-29T13:00:51.641Z,3.34
2016-11-29T13:01:51.405Z,3.23
2016-11-29T13:02:51.376Z,3.06
2016-11-29T13:03:51.431Z,3.26